Aviation Digital Data Service (ADDS)

Output produced by METARs form (0520 UTC 16 February 2019)
found at http://www.aviationweather.gov/metar/data/
 
Forecast for: LGTS (THESSALONIKI/MIK, GR)
Text: TAF LGTS 160500Z 1606/1706 34010KT 9999 FEW030
Forecast period: 0600 to 1000 UTC 16 February 2019
Forecast type: FROM: standard forecast or significant change
Winds: from the NNW (340 degrees) at 12 MPH (10 knots; 5.1 m/s)
Visibility: 6 or more miles 10+ km)
Ceiling: at least 12,000 feet AGL
Clouds: few clouds at 3000 feet AGL
Weather: no significant weather forecast for this period
Text: BECMG 1610/1612 VRB03KT
Forecast period: 1000 UTC 16 February 2019 to 0600 UTC 17 February 2019
Forecast type: BECOMING: Conditions expected to become as follows by 1200 UTC 16 February 2019
Winds: variable direction winds at 3 MPH (3 knots; 1.5 m/s)
Visibility: 6 or more miles 10+ km)
Ceiling: at least 12,000 feet AGL
Clouds: few clouds at 3000 feet AGL
Weather: no significant weather forecast for this period